sensor_id;sensor_type;location;lat;lon;timestamp;temperature;humidity
4615;DHT22;2320;51.362;6.946;2023-04-20T00:01:28;8.60;92.40
4615;DHT22;2320;51.362;6.946;2023-04-20T00:03:54;8.60;92.20
4615;DHT22;2320;51.362;6.946;2023-04-20T00:06:19;8.40;92.70
4615;DHT22;2320;51.362;6.946;2023-04-20T00:08:45;8.40;92.00
4615;DHT22;2320;51.362;6.946;2023-04-20T00:11:11;8.50;92.60
4615;DHT22;2320;51.362;6.946;2023-04-20T00:13:36;8.40;92.10
4615;DHT22;2320;51.362;6.946;2023-04-20T00:16:02;8.40;91.90
4615;DHT22;2320;51.362;6.946;2023-04-20T00:18:27;8.30;92.50
4615;DHT22;2320;51.362;6.946;2023-04-20T00:20:53;8.30;91.80
4615;DHT22;2320;51.362;6.946;2023-04-20T00:23:18;8.40;92.50
4615;DHT22;2320;51.362;6.946;2023-04-20T00:25:44;8.40;92.80
4615;DHT22;2320;51.362;6.946;2023-04-20T00:28:09;8.40;93.70
4615;DHT22;2320;51.362;6.946;2023-04-20T00:30:35;8.30;93.50
4615;DHT22;2320;51.362;6.946;2023-04-20T00:33:00;8.30;92.80
4615;DHT22;2320;51.362;6.946;2023-04-20T00:35:26;8.40;92.30
4615;DHT22;2320;51.362;6.946;2023-04-20T00:37:51;8.40;92.50
4615;DHT22;2320;51.362;6.946;2023-04-20T00:40:17;8.30;91.80
4615;DHT22;2320;51.362;6.946;2023-04-20T00:42:42;8.20;92.30
4615;DHT22;2320;51.362;6.946;2023-04-20T00:45:08;8.20;92.40
4615;DHT22;2320;51.362;6.946;2023-04-20T00:47:34;8.00;92.80
4615;DHT22;2320;51.362;6.946;2023-04-20T00:49:59;7.90;93.60
4615;DHT22;2320;51.362;6.946;2023-04-20T00:52:25;7.90;93.30
4615;DHT22;2320;51.362;6.946;2023-04-20T00:54:51;7.90;92.70
4615;DHT22;2320;51.362;6.946;2023-04-20T00:57:17;7.90;93.70
4615;DHT22;2320;51.362;6.946;2023-04-20T00:59:43;7.90;93.90
4615;DHT22;2320;51.362;6.946;2023-04-20T01:02:09;7.80;93.10
4615;DHT22;2320;51.362;6.946;2023-04-20T01:04:34;7.70;93.60
4615;DHT22;2320;51.362;6.946;2023-04-20T01:07:04;7.80;94.10
4615;DHT22;2320;51.362;6.946;2023-04-20T01:09:29;7.70;93.90
4615;DHT22;2320;51.362;6.946;2023-04-20T01:11:55;7.50;94.70
4615;DHT22;2320;51.362;6.946;2023-04-20T01:14:21;7.50;95.10
4615;DHT22;2320;51.362;6.946;2023-04-20T01:16:46;7.40;95.10
4615;DHT22;2320;51.362;6.946;2023-04-20T01:19:12;7.30;95.90
4615;DHT22;2320;51.362;6.946;2023-04-20T01:21:37;7.20;95.70
4615;DHT22;2320;51.362;6.946;2023-04-20T01:24:03;7.10;96.30
4615;DHT22;2320;51.362;6.946;2023-04-20T01:26:29;7.20;96.40
4615;DHT22;2320;51.362;6.946;2023-04-20T01:28:54;7.10;97.00
4615;DHT22;2320;51.362;6.946;2023-04-20T01:31:20;7.00;97.40
4615;DHT22;2320;51.362;6.946;2023-04-20T01:33:46;7.00;97.50
4615;DHT22;2320;51.362;6.946;2023-04-20T01:36:11;7.10;98.40
4615;DHT22;2320;51.362;6.946;2023-04-20T01:38:37;7.00;98.30
4615;DHT22;2320;51.362;6.946;2023-04-20T01:41:06;6.90;98.40
4615;DHT22;2320;51.362;6.946;2023-04-20T01:43:32;7.00;99.00
4615;DHT22;2320;51.362;6.946;2023-04-20T01:45:58;7.00;99.50
4615;DHT22;2320;51.362;6.946;2023-04-20T01:48:24;7.10;99.90
4615;DHT22;2320;51.362;6.946;2023-04-20T01:50:50;7.20;99.10
4615;DHT22;2320;51.362;6.946;2023-04-20T01:53:16;7.00;99.90
4615;DHT22;2320;51.362;6.946;2023-04-20T01:55:41;7.20;99.90
4615;DHT22;2320;51.362;6.946;2023-04-20T01:58:07;7.30;99.90
4615;DHT22;2320;51.362;6.946;2023-04-20T02:00:32;7.40;99.90
4615;DHT22;2320;51.362;6.946;2023-04-20T02:02:58;7.30;99.90
4615;DHT22;2320;51.362;6.946;2023-04-20T02:05:23;7.20;99.90
4615;DHT22;2320;51.362;6.946;2023-04-20T02:07:49;7.10;99.90
4615;DHT22;2320;51.362;6.946;2023-04-20T02:10:15;7.10;99.90
4615;DHT22;2320;51.362;6.946;2023-04-20T02:12:41;7.20;99.90
4615;DHT22;2320;51.362;6.946;2023-04-20T02:15:06;7.20;99.90
4615;DHT22;2320;51.362;6.946;2023-04-20T02:17:33;7.30;99.90
4615;DHT22;2320;51.362;6.946;2023-04-20T02:20:01;7.20;99.90
4615;DHT22;2320;51.362;6.946;2023-04-20T02:22:26;7.20;99.90
4615;DHT22;2320;51.362;6.946;2023-04-20T02:24:52;7.30;99.90
4615;DHT22;2320;51.362;6.946;2023-04-20T02:27:17;7.30;99.90
4615;DHT22;2320;51.362;6.946;2023-04-20T02:29:43;7.50;99.90
4615;DHT22;2320;51.362;6.946;2023-04-20T02:32:08;7.50;99.90
4615;DHT22;2320;51.362;6.946;2023-04-20T02:34:34;7.60;99.90
4615;DHT22;2320;51.362;6.946;2023-04-20T02:36:59;7.80;99.90
4615;DHT22;2320;51.362;6.946;2023-04-20T02:39:25;7.80;99.90
4615;DHT22;2320;51.362;6.946;2023-04-20T02:41:50;7.80;99.90
4615;DHT22;2320;51.362;6.946;2023-04-20T02:44:16;7.80;99.90
4615;DHT22;2320;51.362;6.946;2023-04-20T02:46:41;8.00;99.90
4615;DHT22;2320;51.362;6.946;2023-04-20T02:49:06;8.10;99.90
4615;DHT22;2320;51.362;6.946;2023-04-20T02:51:32;8.20;99.90
4615;DHT22;2320;51.362;6.946;2023-04-20T02:53:57;8.00;99.90
4615;DHT22;2320;51.362;6.946;2023-04-20T02:56:23;8.10;99.90
4615;DHT22;2320;51.362;6.946;2023-04-20T02:58:49;8.10;99.90
4615;DHT22;2320;51.362;6.946;2023-04-20T03:01:16;8.10;99.90
4615;DHT22;2320;51.362;6.946;2023-04-20T03:03:41;8.20;99.90
4615;DHT22;2320;51.362;6.946;2023-04-20T03:06:07;8.10;99.90
4615;DHT22;2320;51.362;6.946;2023-04-20T03:08:32;8.10;99.90
4615;DHT22;2320;51.362;6.946;2023-04-20T03:10:58;7.90;99.90
4615;DHT22;2320;51.362;6.946;2023-04-20T03:13:23;8.00;99.90
4615;DHT22;2320;51.362;6.946;2023-04-20T03:15:49;8.00;99.90
4615;DHT22;2320;51.362;6.946;2023-04-20T03:18:14;8.00;99.90
4615;DHT22;2320;51.362;6.946;2023-04-20T03:20:40;7.90;99.90
4615;DHT22;2320;51.362;6.946;2023-04-20T03:23:05;8.00;99.90
4615;DHT22;2320;51.362;6.946;2023-04-20T03:25:31;7.90;99.90
4615;DHT22;2320;51.362;6.946;2023-04-20T03:27:56;7.90;99.90
4615;DHT22;2320;51.362;6.946;2023-04-20T03:30:22;7.80;99.90
4615;DHT22;2320;51.362;6.946;2023-04-20T03:32:47;7.80;99.90
4615;DHT22;2320;51.362;6.946;2023-04-20T03:35:13;7.90;99.90
4615;DHT22;2320;51.362;6.946;2023-04-20T03:37:38;8.00;99.90
4615;DHT22;2320;51.362;6.946;2023-04-20T03:40:04;8.00;99.90
4615;DHT22;2320;51.362;6.946;2023-04-20T03:42:31;8.10;99.90
4615;DHT22;2320;51.362;6.946;2023-04-20T03:44:57;8.10;99.90
4615;DHT22;2320;51.362;6.946;2023-04-20T03:47:22;8.10;99.90
4615;DHT22;2320;51.362;6.946;2023-04-20T03:49:47;8.10;99.90
4615;DHT22;2320;51.362;6.946;2023-04-20T03:52:13;8.10;99.90
4615;DHT22;2320;51.362;6.946;2023-04-20T03:54:38;8.30;99.90
4615;DHT22;2320;51.362;6.946;2023-04-20T03:57:04;8.40;99.90
4615;DHT22;2320;51.362;6.946;2023-04-20T03:59:30;8.20;99.90
4615;DHT22;2320;51.362;6.946;2023-04-20T04:01:55;8.10;99.90
4615;DHT22;2320;51.362;6.946;2023-04-20T04:04:21;8.00;99.90
4615;DHT22;2320;51.362;6.946;2023-04-20T04:06:47;7.90;99.90
4615;DHT22;2320;51.362;6.946;2023-04-20T04:09:12;8.00;99.90
4615;DHT22;2320;51.362;6.946;2023-04-20T04:11:38;8.00;99.90
4615;DHT22;2320;51.362;6.946;2023-04-20T04:14:03;8.00;99.90
4615;DHT22;2320;51.362;6.946;2023-04-20T04:16:30;7.90;99.90
4615;DHT22;2320;51.362;6.946;2023-04-20T04:18:55;7.80;99.90
4615;DHT22;2320;51.362;6.946;2023-04-20T04:21:21;7.70;99.90
4615;DHT22;2320;51.362;6.946;2023-04-20T04:23:47;7.50;99.90
4615;DHT22;2320;51.362;6.946;2023-04-20T04:26:13;7.40;99.90
4615;DHT22;2320;51.362;6.946;2023-04-20T04:28:38;7.40;99.90
4615;DHT22;2320;51.362;6.946;2023-04-20T04:31:04;7.50;99.90
4615;DHT22;2320;51.362;6.946;2023-04-20T04:33:33;7.60;99.90
4615;DHT22;2320;51.362;6.946;2023-04-20T04:35:59;7.60;99.90
4615;DHT22;2320;51.362;6.946;2023-04-20T04:38:24;7.70;99.90
4615;DHT22;2320;51.362;6.946;2023-04-20T04:40:51;7.80;99.90
4615;DHT22;2320;51.362;6.946;2023-04-20T04:43:17;7.90;99.90
4615;DHT22;2320;51.362;6.946;2023-04-20T04:45:43;7.90;99.90
4615;DHT22;2320;51.362;6.946;2023-04-20T04:48:10;8.00;99.90
4615;DHT22;2320;51.362;6.946;2023-04-20T04:50:37;7.90;99.90
4615;DHT22;2320;51.362;6.946;2023-04-20T04:53:02;7.90;99.90
4615;DHT22;2320;51.362;6.946;2023-04-20T04:55:28;7.90;99.90
4615;DHT22;2320;51.362;6.946;2023-04-20T04:57:53;7.80;99.90
4615;DHT22;2320;51.362;6.946;2023-04-20T05:00:19;7.80;99.90
4615;DHT22;2320;51.362;6.946;2023-04-20T05:02:44;7.70;99.90
4615;DHT22;2320;51.362;6.946;2023-04-20T05:05:09;7.80;99.90
4615;DHT22;2320;51.362;6.946;2023-04-20T05:07:36;7.80;99.90
4615;DHT22;2320;51.362;6.946;2023-04-20T05:10:02;7.70;99.90
4615;DHT22;2320;51.362;6.946;2023-04-20T05:12:28;7.80;99.90
4615;DHT22;2320;51.362;6.946;2023-04-20T05:14:53;7.80;99.90
4615;DHT22;2320;51.362;6.946;2023-04-20T05:17:19;8.00;99.90
4615;DHT22;2320;51.362;6.946;2023-04-20T05:19:46;8.10;99.90
4615;DHT22;2320;51.362;6.946;2023-04-20T05:22:12;8.10;99.90
4615;DHT22;2320;51.362;6.946;2023-04-20T05:24:37;8.10;99.90
4615;DHT22;2320;51.362;6.946;2023-04-20T05:27:03;8.10;99.90
4615;DHT22;2320;51.362;6.946;2023-04-20T05:29:28;8.10;99.90
4615;DHT22;2320;51.362;6.946;2023-04-20T05:31:54;8.10;99.90
4615;DHT22;2320;51.362;6.946;2023-04-20T05:34:19;8.10;99.90
4615;DHT22;2320;51.362;6.946;2023-04-20T05:36:45;8.40;99.90
4615;DHT22;2320;51.362;6.946;2023-04-20T05:39:11;8.60;99.90
4615;DHT22;2320;51.362;6.946;2023-04-20T05:41:36;8.70;99.90
4615;DHT22;2320;51.362;6.946;2023-04-20T05:44:02;8.50;99.90
4615;DHT22;2320;51.362;6.946;2023-04-20T05:46:27;8.50;99.90
4615;DHT22;2320;51.362;6.946;2023-04-20T05:48:53;8.40;99.90
4615;DHT22;2320;51.362;6.946;2023-04-20T05:51:19;8.30;99.90
4615;DHT22;2320;51.362;6.946;2023-04-20T05:53:44;8.30;99.90
4615;DHT22;2320;51.362;6.946;2023-04-20T05:56:10;8.10;99.90
4615;DHT22;2320;51.362;6.946;2023-04-20T05:58:35;8.20;99.90
4615;DHT22;2320;51.362;6.946;2023-04-20T06:01:02;8.10;99.90
4615;DHT22;2320;51.362;6.946;2023-04-20T06:03:28;8.10;99.90
4615;DHT22;2320;51.362;6.946;2023-04-20T06:05:53;8.10;99.90
4615;DHT22;2320;51.362;6.946;2023-04-20T06:08:19;8.20;99.90
4615;DHT22;2320;51.362;6.946;2023-04-20T06:10:44;8.00;99.90
4615;DHT22;2320;51.362;6.946;2023-04-20T06:13:10;8.10;99.90
4615;DHT22;2320;51.362;6.946;2023-04-20T06:15:35;8.10;99.90
4615;DHT22;2320;51.362;6.946;2023-04-20T06:18:01;8.10;99.90
4615;DHT22;2320;51.362;6.946;2023-04-20T06:20:27;8.10;99.90
4615;DHT22;2320;51.362;6.946;2023-04-20T06:22:52;8.20;99.90
4615;DHT22;2320;51.362;6.946;2023-04-20T06:25:18;8.20;99.90
4615;DHT22;2320;51.362;6.946;2023-04-20T06:27:43;8.10;99.90
4615;DHT22;2320;51.362;6.946;2023-04-20T06:30:09;8.10;99.90
4615;DHT22;2320;51.362;6.946;2023-04-20T06:32:35;8.00;99.90
4615;DHT22;2320;51.362;6.946;2023-04-20T06:35:00;8.10;99.90
4615;DHT22;2320;51.362;6.946;2023-04-20T06:37:26;8.10;99.90
4615;DHT22;2320;51.362;6.946;2023-04-20T06:39:52;8.00;99.90
4615;DHT22;2320;51.362;6.946;2023-04-20T06:42:19;7.90;99.90
4615;DHT22;2320;51.362;6.946;2023-04-20T06:44:44;7.90;99.90
4615;DHT22;2320;51.362;6.946;2023-04-20T06:47:10;7.70;99.90
4615;DHT22;2320;51.362;6.946;2023-04-20T06:49:35;7.80;99.90
4615;DHT22;2320;51.362;6.946;2023-04-20T06:52:03;7.70;99.90
4615;DHT22;2320;51.362;6.946;2023-04-20T06:54:29;7.70;99.90
4615;DHT22;2320;51.362;6.946;2023-04-20T06:56:54;7.80;99.90
4615;DHT22;2320;51.362;6.946;2023-04-20T06:59:20;7.80;99.90
4615;DHT22;2320;51.362;6.946;2023-04-20T07:01:46;7.80;99.90
4615;DHT22;2320;51.362;6.946;2023-04-20T07:04:11;7.70;99.90
4615;DHT22;2320;51.362;6.946;2023-04-20T07:06:37;7.80;99.90
4615;DHT22;2320;51.362;6.946;2023-04-20T07:09:02;8.00;99.90
4615;DHT22;2320;51.362;6.946;2023-04-20T07:11:28;7.90;99.90
4615;DHT22;2320;51.362;6.946;2023-04-20T07:13:54;7.90;99.90
4615;DHT22;2320;51.362;6.946;2023-04-20T07:16:19;8.00;99.90
4615;DHT22;2320;51.362;6.946;2023-04-20T07:18:44;7.90;99.90
4615;DHT22;2320;51.362;6.946;2023-04-20T07:21:10;7.90;99.90
4615;DHT22;2320;51.362;6.946;2023-04-20T07:23:36;7.90;99.90
4615;DHT22;2320;51.362;6.946;2023-04-20T07:26:01;8.00;99.90
4615;DHT22;2320;51.362;6.946;2023-04-20T07:28:27;7.90;99.90
4615;DHT22;2320;51.362;6.946;2023-04-20T07:30:52;7.90;99.90
4615;DHT22;2320;51.362;6.946;2023-04-20T07:33:18;8.00;99.90
4615;DHT22;2320;51.362;6.946;2023-04-20T07:35:44;8.20;99.90
4615;DHT22;2320;51.362;6.946;2023-04-20T07:38:10;8.30;99.90
4615;DHT22;2320;51.362;6.946;2023-04-20T07:40:35;8.30;99.90
4615;DHT22;2320;51.362;6.946;2023-04-20T07:43:01;8.30;99.90
4615;DHT22;2320;51.362;6.946;2023-04-20T07:45:26;8.60;99.90
4615;DHT22;2320;51.362;6.946;2023-04-20T07:47:52;8.70;99.90
4615;DHT22;2320;51.362;6.946;2023-04-20T07:50:19;8.70;99.90
4615;DHT22;2320;51.362;6.946;2023-04-20T07:52:44;8.40;99.90
4615;DHT22;2320;51.362;6.946;2023-04-20T07:55:10;8.30;99.90
4615;DHT22;2320;51.362;6.946;2023-04-20T07:57:37;8.20;99.90
4615;DHT22;2320;51.362;6.946;2023-04-20T08:00:03;8.20;99.90
4615;DHT22;2320;51.362;6.946;2023-04-20T08:02:31;8.20;99.90
4615;DHT22;2320;51.362;6.946;2023-04-20T08:04:57;8.30;99.90
4615;DHT22;2320;51.362;6.946;2023-04-20T08:07:22;8.20;99.90
4615;DHT22;2320;51.362;6.946;2023-04-20T08:09:48;8.30;99.90
4615;DHT22;2320;51.362;6.946;2023-04-20T08:12:13;8.40;99.90
4615;DHT22;2320;51.362;6.946;2023-04-20T08:14:39;8.30;99.90
4615;DHT22;2320;51.362;6.946;2023-04-20T08:17:05;8.20;99.90
4615;DHT22;2320;51.362;6.946;2023-04-20T08:19:31;8.10;99.90
4615;DHT22;2320;51.362;6.946;2023-04-20T08:21:56;8.00;99.90
4615;DHT22;2320;51.362;6.946;2023-04-20T08:24:22;8.00;99.90
4615;DHT22;2320;51.362;6.946;2023-04-20T08:26:47;7.90;99.90
4615;DHT22;2320;51.362;6.946;2023-04-20T08:29:13;8.00;99.90
4615;DHT22;2320;51.362;6.946;2023-04-20T08:31:39;8.20;99.90
4615;DHT22;2320;51.362;6.946;2023-04-20T08:34:04;8.30;99.90
4615;DHT22;2320;51.362;6.946;2023-04-20T08:36:30;8.40;99.90
4615;DHT22;2320;51.362;6.946;2023-04-20T08:39:06;8.40;99.90
4615;DHT22;2320;51.362;6.946;2023-04-20T08:41:32;8.50;99.90
4615;DHT22;2320;51.362;6.946;2023-04-20T08:43:58;8.60;99.90
4615;DHT22;2320;51.362;6.946;2023-04-20T08:46:23;8.60;99.90
4615;DHT22;2320;51.362;6.946;2023-04-20T08:48:49;8.70;99.90
4615;DHT22;2320;51.362;6.946;2023-04-20T08:51:15;8.80;99.90
4615;DHT22;2320;51.362;6.946;2023-04-20T08:53:42;8.80;99.90
4615;DHT22;2320;51.362;6.946;2023-04-20T08:56:07;8.90;99.90
4615;DHT22;2320;51.362;6.946;2023-04-20T08:58:33;9.20;99.90
4615;DHT22;2320;51.362;6.946;2023-04-20T09:00:59;9.40;99.90
4615;DHT22;2320;51.362;6.946;2023-04-20T09:03:32;9.30;99.90
4615;DHT22;2320;51.362;6.946;2023-04-20T09:05:57;9.30;99.90
4615;DHT22;2320;51.362;6.946;2023-04-20T09:08:39;9.30;99.90
4615;DHT22;2320;51.362;6.946;2023-04-20T09:11:05;9.10;99.90
4615;DHT22;2320;51.362;6.946;2023-04-20T09:13:31;8.80;99.90
4615;DHT22;2320;51.362;6.946;2023-04-20T09:15:57;9.00;99.90
4615;DHT22;2320;51.362;6.946;2023-04-20T09:18:33;8.90;99.90
4615;DHT22;2320;51.362;6.946;2023-04-20T09:21:06;8.70;99.90
4615;DHT22;2320;51.362;6.946;2023-04-20T09:23:31;8.80;99.90
4615;DHT22;2320;51.362;6.946;2023-04-20T09:25:57;8.90;99.90
4615;DHT22;2320;51.362;6.946;2023-04-20T09:28:22;8.80;99.90
4615;DHT22;2320;51.362;6.946;2023-04-20T09:30:48;8.70;99.90
4615;DHT22;2320;51.362;6.946;2023-04-20T09:33:15;9.00;99.90
4615;DHT22;2320;51.362;6.946;2023-04-20T09:35:41;9.20;99.90
4615;DHT22;2320;51.362;6.946;2023-04-20T09:38:08;9.40;99.90
4615;DHT22;2320;51.362;6.946;2023-04-20T09:40:34;9.60;99.90
4615;DHT22;2320;51.362;6.946;2023-04-20T09:43:05;9.60;99.90
4615;DHT22;2320;51.362;6.946;2023-04-20T09:45:31;9.70;99.90
4615;DHT22;2320;51.362;6.946;2023-04-20T09:47:57;9.80;99.90
4615;DHT22;2320;51.362;6.946;2023-04-20T09:50:22;10.00;99.90
4615;DHT22;2320;51.362;6.946;2023-04-20T09:52:48;10.10;99.90
4615;DHT22;2320;51.362;6.946;2023-04-20T09:55:14;9.80;99.90
4615;DHT22;2320;51.362;6.946;2023-04-20T09:57:40;9.80;99.90
4615;DHT22;2320;51.362;6.946;2023-04-20T10:00:06;9.60;99.90
4615;DHT22;2320;51.362;6.946;2023-04-20T10:02:35;9.50;99.90
4615;DHT22;2320;51.362;6.946;2023-04-20T10:05:00;9.60;99.90
4615;DHT22;2320;51.362;6.946;2023-04-20T10:07:27;9.60;99.90
4615;DHT22;2320;51.362;6.946;2023-04-20T10:10:06;10.10;99.90
4615;DHT22;2320;51.362;6.946;2023-04-20T10:12:31;10.30;99.90
4615;DHT22;2320;51.362;6.946;2023-04-20T10:14:57;10.10;99.90
4615;DHT22;2320;51.362;6.946;2023-04-20T10:17:31;11.30;99.90
4615;DHT22;2320;51.362;6.946;2023-04-20T10:19:56;12.10;99.90
4615;DHT22;2320;51.362;6.946;2023-04-20T10:22:27;12.50;99.90
4615;DHT22;2320;51.362;6.946;2023-04-20T10:24:57;12.70;99.90
4615;DHT22;2320;51.362;6.946;2023-04-20T10:27:22;12.30;99.90
4615;DHT22;2320;51.362;6.946;2023-04-20T10:29:48;11.00;99.90
4615;DHT22;2320;51.362;6.946;2023-04-20T10:32:26;10.20;99.90
4615;DHT22;2320;51.362;6.946;2023-04-20T10:35:05;9.60;99.90
4615;DHT22;2320;51.362;6.946;2023-04-20T10:37:31;9.40;99.90
4615;DHT22;2320;51.362;6.946;2023-04-20T10:39:56;9.30;99.90
4615;DHT22;2320;51.362;6.946;2023-04-20T10:42:22;9.40;99.90
4615;DHT22;2320;51.362;6.946;2023-04-20T10:44:51;9.60;99.90
4615;DHT22;2320;51.362;6.946;2023-04-20T10:47:17;10.40;99.90
4615;DHT22;2320;51.362;6.946;2023-04-20T10:49:50;10.60;99.90
4615;DHT22;2320;51.362;6.946;2023-04-20T10:52:15;11.20;99.90
4615;DHT22;2320;51.362;6.946;2023-04-20T10:54:41;11.90;99.90
4615;DHT22;2320;51.362;6.946;2023-04-20T10:57:06;12.50;99.90
4615;DHT22;2320;51.362;6.946;2023-04-20T10:59:32;13.30;99.90
4615;DHT22;2320;51.362;6.946;2023-04-20T11:02:05;13.10;99.90
4615;DHT22;2320;51.362;6.946;2023-04-20T11:04:31;12.30;99.90
4615;DHT22;2320;51.362;6.946;2023-04-20T11:07:04;11.80;99.90
4615;DHT22;2320;51.362;6.946;2023-04-20T11:09:30;11.50;99.90
4615;DHT22;2320;51.362;6.946;2023-04-20T11:12:01;11.40;99.90
4615;DHT22;2320;51.362;6.946;2023-04-20T11:14:28;11.30;99.90
4615;DHT22;2320;51.362;6.946;2023-04-20T11:16:54;11.20;99.90
4615;DHT22;2320;51.362;6.946;2023-04-20T11:21:54;11.30;99.90
4615;DHT22;2320;51.362;6.946;2023-04-20T11:24:21;11.30;99.90
4615;DHT22;2320;51.362;6.946;2023-04-20T11:26:47;11.20;99.90
4615;DHT22;2320;51.362;6.946;2023-04-20T11:31:54;11.80;99.90
4615;DHT22;2320;51.362;6.946;2023-04-20T11:34:20;12.20;99.90
4615;DHT22;2320;51.362;6.946;2023-04-20T11:36:45;12.20;99.90
4615;DHT22;2320;51.362;6.946;2023-04-20T11:39:11;11.70;99.90
4615;DHT22;2320;51.362;6.946;2023-04-20T11:41:39;11.80;99.90
4615;DHT22;2320;51.362;6.946;2023-04-20T11:44:06;12.00;99.90
4615;DHT22;2320;51.362;6.946;2023-04-20T11:46:35;12.10;99.90
4615;DHT22;2320;51.362;6.946;2023-04-20T11:49:02;12.30;99.90
4615;DHT22;2320;51.362;6.946;2023-04-20T11:51:28;12.50;99.90
4615;DHT22;2320;51.362;6.946;2023-04-20T11:53:54;12.30;99.90
4615;DHT22;2320;51.362;6.946;2023-04-20T11:56:19;11.90;99.90
4615;DHT22;2320;51.362;6.946;2023-04-20T11:58:45;12.00;99.90
4615;DHT22;2320;51.362;6.946;2023-04-20T12:01:10;12.30;99.90
4615;DHT22;2320;51.362;6.946;2023-04-20T12:03:36;12.70;99.90
4615;DHT22;2320;51.362;6.946;2023-04-20T12:06:01;13.20;99.90
4615;DHT22;2320;51.362;6.946;2023-04-20T12:08:27;13.30;99.90
4615;DHT22;2320;51.362;6.946;2023-04-20T12:10:52;13.00;99.90
4615;DHT22;2320;51.362;6.946;2023-04-20T12:13:18;13.10;99.90
4615;DHT22;2320;51.362;6.946;2023-04-20T12:15:43;13.10;99.90
4615;DHT22;2320;51.362;6.946;2023-04-20T12:18:09;13.40;99.90
4615;DHT22;2320;51.362;6.946;2023-04-20T12:20:35;13.20;99.90
4615;DHT22;2320;51.362;6.946;2023-04-20T12:23:01;13.00;99.90
4615;DHT22;2320;51.362;6.946;2023-04-20T12:25:26;12.90;99.90
4615;DHT22;2320;51.362;6.946;2023-04-20T12:27:52;12.70;99.90
4615;DHT22;2320;51.362;6.946;2023-04-20T12:30:17;12.60;99.90
4615;DHT22;2320;51.362;6.946;2023-04-20T12:32:43;12.60;99.90
4615;DHT22;2320;51.362;6.946;2023-04-20T12:35:08;12.50;99.90
4615;DHT22;2320;51.362;6.946;2023-04-20T12:37:34;12.60;99.90
4615;DHT22;2320;51.362;6.946;2023-04-20T12:39:59;12.60;99.90
4615;DHT22;2320;51.362;6.946;2023-04-20T12:42:25;12.70;99.90
4615;DHT22;2320;51.362;6.946;2023-04-20T12:44:53;12.80;99.90
4615;DHT22;2320;51.362;6.946;2023-04-20T12:47:20;12.70;99.90
4615;DHT22;2320;51.362;6.946;2023-04-20T12:49:46;12.30;99.90
4615;DHT22;2320;51.362;6.946;2023-04-20T12:52:11;12.20;99.90
4615;DHT22;2320;51.362;6.946;2023-04-20T12:54:37;11.80;99.90
4615;DHT22;2320;51.362;6.946;2023-04-20T12:57:02;11.50;99.90
4615;DHT22;2320;51.362;6.946;2023-04-20T12:59:28;11.50;99.90
4615;DHT22;2320;51.362;6.946;2023-04-20T13:01:53;11.70;99.90
4615;DHT22;2320;51.362;6.946;2023-04-20T13:04:19;11.70;99.90
4615;DHT22;2320;51.362;6.946;2023-04-20T13:06:44;11.70;99.90
4615;DHT22;2320;51.362;6.946;2023-04-20T13:09:10;11.60;99.90
4615;DHT22;2320;51.362;6.946;2023-04-20T13:11:35;11.70;99.90
4615;DHT22;2320;51.362;6.946;2023-04-20T13:14:01;11.80;99.90
4615;DHT22;2320;51.362;6.946;2023-04-20T13:16:26;11.90;99.90
4615;DHT22;2320;51.362;6.946;2023-04-20T13:18:53;11.80;99.90
4615;DHT22;2320;51.362;6.946;2023-04-20T13:21:18;11.80;99.90
4615;DHT22;2320;51.362;6.946;2023-04-20T13:23:44;11.70;99.90
4615;DHT22;2320;51.362;6.946;2023-04-20T13:26:09;11.60;99.90
4615;DHT22;2320;51.362;6.946;2023-04-20T13:28:35;11.50;99.90
4615;DHT22;2320;51.362;6.946;2023-04-20T13:31:02;11.50;99.90
4615;DHT22;2320;51.362;6.946;2023-04-20T13:33:27;11.60;99.90
4615;DHT22;2320;51.362;6.946;2023-04-20T13:35:53;11.70;99.90
4615;DHT22;2320;51.362;6.946;2023-04-20T13:38:18;11.90;99.90
4615;DHT22;2320;51.362;6.946;2023-04-20T13:40:44;12.20;99.90
4615;DHT22;2320;51.362;6.946;2023-04-20T13:43:11;12.50;99.90
4615;DHT22;2320;51.362;6.946;2023-04-20T13:45:36;12.80;99.90
4615;DHT22;2320;51.362;6.946;2023-04-20T13:48:02;13.00;99.90
4615;DHT22;2320;51.362;6.946;2023-04-20T13:50:27;12.90;99.90
4615;DHT22;2320;51.362;6.946;2023-04-20T13:52:52;12.80;99.90
4615;DHT22;2320;51.362;6.946;2023-04-20T13:55:18;12.80;99.90
4615;DHT22;2320;51.362;6.946;2023-04-20T13:57:45;12.80;99.90
4615;DHT22;2320;51.362;6.946;2023-04-20T14:00:10;13.20;99.90
4615;DHT22;2320;51.362;6.946;2023-04-20T14:02:36;13.00;99.90
4615;DHT22;2320;51.362;6.946;2023-04-20T14:05:01;12.80;99.90
4615;DHT22;2320;51.362;6.946;2023-04-20T14:07:28;12.60;99.90
4615;DHT22;2320;51.362;6.946;2023-04-20T14:09:54;12.40;99.90
4615;DHT22;2320;51.362;6.946;2023-04-20T14:12:20;12.30;99.90
4615;DHT22;2320;51.362;6.946;2023-04-20T14:14:46;12.10;99.90
4615;DHT22;2320;51.362;6.946;2023-04-20T14:17:11;12.00;99.90
4615;DHT22;2320;51.362;6.946;2023-04-20T14:19:37;12.10;99.90
4615;DHT22;2320;51.362;6.946;2023-04-20T14:22:02;12.20;99.90
4615;DHT22;2320;51.362;6.946;2023-04-20T14:24:28;12.40;99.90
4615;DHT22;2320;51.362;6.946;2023-04-20T14:26:53;12.40;99.90
4615;DHT22;2320;51.362;6.946;2023-04-20T14:29:19;12.40;99.90
4615;DHT22;2320;51.362;6.946;2023-04-20T14:31:44;12.40;99.90
4615;DHT22;2320;51.362;6.946;2023-04-20T14:34:10;12.50;99.90
4615;DHT22;2320;51.362;6.946;2023-04-20T14:36:37;12.80;99.90
4615;DHT22;2320;51.362;6.946;2023-04-20T14:39:02;13.10;99.90
4615;DHT22;2320;51.362;6.946;2023-04-20T14:41:28;13.40;99.90
4615;DHT22;2320;51.362;6.946;2023-04-20T14:43:53;13.40;99.90
4615;DHT22;2320;51.362;6.946;2023-04-20T14:46:19;13.40;99.90
4615;DHT22;2320;51.362;6.946;2023-04-20T14:48:44;13.10;99.90
4615;DHT22;2320;51.362;6.946;2023-04-20T14:51:10;12.80;99.90
4615;DHT22;2320;51.362;6.946;2023-04-20T14:53:36;12.70;99.90
4615;DHT22;2320;51.362;6.946;2023-04-20T14:56:02;12.60;99.90
4615;DHT22;2320;51.362;6.946;2023-04-20T14:58:27;12.60;99.90
4615;DHT22;2320;51.362;6.946;2023-04-20T15:00:53;12.50;99.90
4615;DHT22;2320;51.362;6.946;2023-04-20T15:03:18;12.50;99.90
4615;DHT22;2320;51.362;6.946;2023-04-20T15:05:44;12.50;99.90
4615;DHT22;2320;51.362;6.946;2023-04-20T15:08:09;12.50;99.90
4615;DHT22;2320;51.362;6.946;2023-04-20T15:10:35;12.70;99.90
4615;DHT22;2320;51.362;6.946;2023-04-20T15:13:00;12.80;99.90
4615;DHT22;2320;51.362;6.946;2023-04-20T15:15:26;12.90;99.90
4615;DHT22;2320;51.362;6.946;2023-04-20T15:17:52;12.80;99.90
4615;DHT22;2320;51.362;6.946;2023-04-20T15:20:18;12.80;99.90
4615;DHT22;2320;51.362;6.946;2023-04-20T15:22:43;12.80;99.90
4615;DHT22;2320;51.362;6.946;2023-04-20T15:25:09;12.70;99.90
4615;DHT22;2320;51.362;6.946;2023-04-20T15:27:34;12.60;99.90
4615;DHT22;2320;51.362;6.946;2023-04-20T15:30:00;12.50;99.90
4615;DHT22;2320;51.362;6.946;2023-04-20T15:32:26;12.40;99.90
4615;DHT22;2320;51.362;6.946;2023-04-20T15:34:54;12.20;99.90
4615;DHT22;2320;51.362;6.946;2023-04-20T15:37:19;12.20;99.90
4615;DHT22;2320;51.362;6.946;2023-04-20T15:39:45;12.30;99.90
4615;DHT22;2320;51.362;6.946;2023-04-20T15:42:10;12.30;99.90
4615;DHT22;2320;51.362;6.946;2023-04-20T15:44:36;12.20;99.90
4615;DHT22;2320;51.362;6.946;2023-04-20T15:47:01;12.20;99.90
4615;DHT22;2320;51.362;6.946;2023-04-20T15:49:27;12.30;99.90
4615;DHT22;2320;51.362;6.946;2023-04-20T15:51:53;12.40;99.90
4615;DHT22;2320;51.362;6.946;2023-04-20T15:54:18;12.30;99.90
4615;DHT22;2320;51.362;6.946;2023-04-20T15:56:50;12.50;99.90
4615;DHT22;2320;51.362;6.946;2023-04-20T15:59:16;12.50;99.90
4615;DHT22;2320;51.362;6.946;2023-04-20T16:01:42;12.60;99.90
4615;DHT22;2320;51.362;6.946;2023-04-20T16:04:07;12.60;99.90
4615;DHT22;2320;51.362;6.946;2023-04-20T16:06:33;12.60;99.90
4615;DHT22;2320;51.362;6.946;2023-04-20T16:09:01;12.60;99.90